Time,TemperatureF,DewpointF,PressureIn,WindDirection,WindDirectionDegrees,WindSpeedMPH,WindSpeedGustMPH,Humidity,HourlyPrecipIn,Conditions,Clouds,dailyrainin,SoftwareType,DateUTC
2013-02-12 00:01:00,45.2,28.1,30.14,West,267,1.0,1.0,51,0.00,,,0.00,Wunderground v.1.15,2013-02-12 05:01:00,
2013-02-12 00:02:00,45.2,28.1,30.14,West,259,1.0,1.0,51,0.00,,,0.00,Wunderground v.1.15,2013-02-12 05:02:00,
2013-02-12 00:04:00,45.3,28.2,30.14,WSW,250,1.0,1.0,51,0.00,,,0.00,Wunderground v.1.15,2013-02-12 05:04:00,
2013-02-12 00:06:00,45.4,28.3,30.14,WSW,245,1.0,2.0,51,0.00,,,0.00,Wunderground v.1.15,2013-02-12 05:06:00,
2013-02-12 00:12:00,45.7,27.6,30.14,West,270,2.0,2.0,49,0.00,,,0.00,Wunderground v.1.15,2013-02-12 05:12:00,
2013-02-12 00:18:00,45.9,27.3,30.14,West,274,1.0,2.0,48,0.00,,,0.00,Wunderground v.1.15,2013-02-12 05:18:00,
2013-02-12 00:24:00,45.6,27.5,30.14,WNW,287,1.0,3.0,49,0.00,,,0.00,Wunderground v.1.15,2013-02-12 05:24:00,
2013-02-12 00:30:00,46.0,26.4,30.13,West,259,2.0,3.0,46,0.00,,,0.00,Wunderground v.1.15,2013-02-12 05:30:00,
2013-02-12 00:36:00,46.4,26.7,30.13,NNE,26,3.0,6.0,46,0.00,,,0.00,Wunderground v.1.15,2013-02-12 05:36:00,
2013-02-12 00:42:00,45.4,27.8,30.14,NNE,31,2.0,2.0,50,0.00,,,0.00,Wunderground v.1.15,2013-02-12 05:42:00,
2013-02-12 00:48:00,45.0,27.5,30.14,NNE,25,1.0,2.0,50,0.00,,,0.00,Wunderground v.1.15,2013-02-12 05:48:00,
2013-02-12 00:54:00,44.8,26.8,30.14,NNE,25,1.0,3.0,49,0.00,,,0.00,Wunderground v.1.15,2013-02-12 05:54:00,
2013-02-12 01:00:00,44.7,27.7,30.15,NE,39,3.0,5.0,51,0.00,,,0.00,Wunderground v.1.15,2013-02-12 06:00:00,
2013-02-12 01:06:00,44.2,27.2,30.14,NNE,25,3.0,5.0,51,0.00,,,0.00,Wunderground v.1.15,2013-02-12 06:06:00,
2013-02-12 01:12:00,44.2,27.2,30.15,North,8,2.0,3.0,51,0.00,,,0.00,Wunderground v.1.15,2013-02-12 06:12:00,
2013-02-12 01:18:00,43.6,27.6,30.15,ENE,61,2.0,3.0,53,0.00,,,0.00,Wunderground v.1.15,2013-02-12 06:18:00,
2013-02-12 01:24:00,43.0,27.5,30.16,NNE,18,1.0,3.0,54,0.00,,,0.00,Wunderground v.1.15,2013-02-12 06:24:00,
2013-02-12 01:30:00,43.0,27.9,30.16,NE,44,2.0,3.0,55,0.00,,,0.00,Wunderground v.1.15,2013-02-12 06:30:00,
2013-02-12 01:36:00,42.7,27.6,30.15,NW,309,1.0,3.0,55,0.00,,,0.00,Wunderground v.1.15,2013-02-12 06:36:00,
2013-02-12 01:42:00,41.7,29.2,30.15,North,359,1.0,3.0,61,0.00,,,0.00,Wunderground v.1.15,2013-02-12 06:42:00,
2013-02-12 01:48:00,41.9,26.9,30.15,North,1,1.0,3.0,55,0.00,,,0.00,Wunderground v.1.15,2013-02-12 06:48:00,
2013-02-12 01:54:00,42.4,27.4,30.16,NNE,20,2.0,4.0,55,0.00,,,0.00,Wunderground v.1.15,2013-02-12 06:54:00,
2013-02-12 02:00:00,42.8,27.3,30.16,NNE,19,4.0,4.0,54,0.00,,,0.00,Wunderground v.1.15,2013-02-12 07:00:00,
2013-02-12 02:06:00,42.9,26.9,30.16,NNE,20,4.0,4.0,53,0.00,,,0.00,Wunderground v.1.15,2013-02-12 07:06:00,
2013-02-12 02:12:00,42.9,26.9,30.15,NNE,18,3.0,4.0,53,0.00,,,0.00,Wunderground v.1.15,2013-02-12 07:12:00,
2013-02-12 02:18:00,41.5,29.8,30.16,ESE,109,1.0,4.0,63,0.00,,,0.00,Wunderground v.1.15,2013-02-12 07:18:00,
2013-02-12 02:24:00,40.4,28.0,30.16,ENE,62,1.0,3.0,61,0.00,,,0.00,Wunderground v.1.15,2013-02-12 07:24:00,
2013-02-12 02:30:00,40.3,28.7,30.16,NE,54,1.0,3.0,63,0.00,,,0.00,Wunderground v.1.15,2013-02-12 07:30:00,
2013-02-12 02:36:00,39.8,27.8,30.16,East,98,1.0,3.0,62,0.00,,,0.00,Wunderground v.1.15,2013-02-12 07:36:00,
2013-02-12 02:42:00,39.5,28.3,30.16,East,99,0.0,3.0,64,0.00,,,0.00,Wunderground v.1.15,2013-02-12 07:42:00,
2013-02-12 02:48:00,39.3,29.6,30.15,East,84,1.0,3.0,68,0.00,,,0.00,Wunderground v.1.15,2013-02-12 07:48:00,
2013-02-12 02:54:00,38.5,28.9,30.16,NNE,31,2.0,3.0,68,0.00,,,0.00,Wunderground v.1.15,2013-02-12 07:54:00,
2013-02-12 03:00:00,39.2,26.9,30.16,NNE,12,3.0,5.0,61,0.00,,,0.00,Wunderground v.1.15,2013-02-12 08:00:00,
2013-02-12 03:06:00,41.7,26.7,30.16,NNE,21,3.0,5.0,55,0.00,,,0.00,Wunderground v.1.15,2013-02-12 08:06:00,
2013-02-12 03:12:00,41.2,29.2,30.17,WSW,238,2.0,3.0,62,0.00,,,0.00,Wunderground v.1.15,2013-02-12 08:12:00,
2013-02-12 03:18:00,39.1,28.3,30.17,SW,222,1.0,3.0,65,0.00,,,0.00,Wunderground v.1.15,2013-02-12 08:18:00,
2013-02-12 03:24:00,38.7,27.6,30.17,NW,309,0.0,3.0,64,0.00,,,0.00,Wunderground v.1.15,2013-02-12 08:24:00,
2013-02-12 03:30:00,38.3,28.7,30.17,ENE,58,1.0,3.0,68,0.00,,,0.00,Wunderground v.1.15,2013-02-12 08:30:00,
2013-02-12 03:36:00,38.2,28.2,30.16,NE,44,1.0,3.0,67,0.00,,,0.00,Wunderground v.1.15,2013-02-12 08:36:00,
2013-02-12 03:42:00,37.9,27.9,30.16,NE,41,2.0,3.0,67,0.00,,,0.00,Wunderground v.1.15,2013-02-12 08:42:00,
2013-02-12 03:48:00,38.1,28.1,30.16,NE,49,3.0,3.0,67,0.00,,,0.00,Wunderground v.1.15,2013-02-12 08:48:00,
2013-02-12 03:54:00,38.4,27.7,30.17,NE,41,2.0,3.0,65,0.00,,,0.00,Wunderground v.1.15,2013-02-12 08:54:00,
2013-02-12 04:00:00,37.9,27.9,30.17,NE,41,1.0,1.0,67,0.00,,,0.00,Wunderground v.1.15,2013-02-12 09:00:00,
2013-02-12 04:06:00,37.3,27.3,30.16,NE,41,0.0,3.0,67,0.00,,,0.00,Wunderground v.1.15,2013-02-12 09:06:00,
2013-02-12 04:12:00,37.4,27.4,30.17,NNE,27,0.0,3.0,67,0.00,,,0.00,Wunderground v.1.15,2013-02-12 09:12:00,
2013-02-12 04:18:00,38.1,27.4,30.17,WNW,283,1.0,3.0,65,0.00,,,0.00,Wunderground v.1.15,2013-02-12 09:18:00,
2013-02-12 04:24:00,38.1,27.7,30.17,West,266,1.0,3.0,66,0.00,,,0.00,Wunderground v.1.15,2013-02-12 09:24:00,
2013-02-12 04:30:00,37.6,30.1,30.17,West,271,1.0,1.0,74,0.00,,,0.00,Wunderground v.1.15,2013-02-12 09:30:00,
2013-02-12 04:36:00,37.1,28.9,30.17,NNE,31,0.0,3.0,72,0.00,,,0.00,Wunderground v.1.15,2013-02-12 09:36:00,
2013-02-12 04:42:00,36.7,28.5,30.17,NNE,31,1.0,3.0,72,0.00,,,0.00,Wunderground v.1.15,2013-02-12 09:42:00,
2013-02-12 04:48:00,37.0,30.1,30.18,NNE,32,1.0,3.0,76,0.00,,,0.00,Wunderground v.1.15,2013-02-12 09:48:00,
2013-02-12 04:54:00,36.7,28.5,30.18,NE,44,2.0,3.0,72,0.00,,,0.00,Wunderground v.1.15,2013-02-12 09:54:00,
2013-02-12 05:00:00,36.8,28.6,30.17,NE,34,2.0,2.0,72,0.00,,,0.00,Wunderground v.1.15,2013-02-12 10:00:00,
2013-02-12 05:06:00,36.4,28.9,30.17,NE,34,0.0,3.0,74,0.00,,,0.00,Wunderground v.1.15,2013-02-12 10:06:00,
2013-02-12 05:12:00,36.2,29.0,30.16,NE,34,0.0,3.0,75,0.00,,,0.00,Wunderground v.1.15,2013-02-12 10:12:00,
2013-02-12 05:18:00,35.8,28.6,30.16,ENE,61,0.0,3.0,75,0.00,,,0.00,Wunderground v.1.15,2013-02-12 10:18:00,
2013-02-12 05:24:00,35.1,28.6,30.17,NE,39,1.0,3.0,77,0.00,,,0.00,Wunderground v.1.15,2013-02-12 10:24:00,
2013-02-12 05:30:00,34.7,28.5,30.16,NE,39,0.0,3.0,78,0.00,,,0.00,Wunderground v.1.15,2013-02-12 10:30:00,
2013-02-12 05:36:00,34.5,28.7,30.17,NE,40,0.0,3.0,79,0.00,,,0.00,Wunderground v.1.15,2013-02-12 10:36:00,
2013-02-12 05:42:00,34.2,28.4,30.17,ENE,74,1.0,3.0,79,0.00,,,0.00,Wunderground v.1.15,2013-02-12 10:42:00,
2013-02-12 05:48:00,34.1,28.3,30.17,ENE,74,1.0,3.0,79,0.00,,,0.00,Wunderground v.1.15,2013-02-12 10:48:00,
2013-02-12 05:54:00,34.0,28.5,30.17,ENE,74,0.0,3.0,80,0.00,,,0.00,Wunderground v.1.15,2013-02-12 10:54:00,
2013-02-12 06:00:00,34.1,28.6,30.17,ENE,72,0.0,3.0,80,0.00,,,0.00,Wunderground v.1.15,2013-02-12 11:00:00,
2013-02-12 06:06:00,34.6,28.8,30.18,NNE,32,0.0,3.0,79,0.00,,,0.00,Wunderground v.1.15,2013-02-12 11:06:00,
2013-02-12 06:12:00,35.2,29.0,30.18,ENE,69,2.0,3.0,78,0.00,,,0.00,Wunderground v.1.15,2013-02-12 11:12:00,
2013-02-12 06:18:00,35.6,28.8,30.18,NE,43,1.0,3.0,76,0.00,,,0.00,Wunderground v.1.15,2013-02-12 11:18:00,
2013-02-12 06:24:00,35.7,28.9,30.18,NNE,32,1.0,3.0,76,0.00,,,0.00,Wunderground v.1.15,2013-02-12 11:24:00,
2013-02-12 06:30:00,36.0,29.2,30.19,NW,323,0.0,3.0,76,0.00,,,0.00,Wunderground v.1.15,2013-02-12 11:30:00,
2013-02-12 06:36:00,35.9,29.4,30.19,West,273,0.0,3.0,77,0.00,,,0.00,Wunderground v.1.15,2013-02-12 11:36:00,
2013-02-12 06:42:00,35.6,29.4,30.18,North,6,1.0,3.0,78,0.00,,,0.00,Wunderground v.1.15,2013-02-12 11:42:00,
2013-02-12 06:48:00,36.0,29.5,30.19,NNE,25,1.0,3.0,77,0.00,,,0.00,Wunderground v.1.15,2013-02-12 11:48:00,
2013-02-12 06:54:00,36.3,30.7,30.19,North,8,1.0,3.0,80,0.00,,,0.00,Wunderground v.1.15,2013-02-12 11:54:00,
2013-02-12 07:00:00,36.2,30.9,30.19,North,7,0.0,3.0,81,0.00,,,0.00,Wunderground v.1.15,2013-02-12 12:00:00,
2013-02-12 07:06:00,35.8,30.2,30.19,North,8,0.0,3.0,80,0.00,,,0.00,Wunderground v.1.15,2013-02-12 12:06:00,
2013-02-12 07:12:00,35.7,30.1,30.19,North,8,0.0,3.0,80,0.00,,,0.00,Wunderground v.1.15,2013-02-12 12:12:00,
2013-02-12 07:18:00,35.3,30.1,30.19,North,8,0.0,3.0,81,0.00,,,0.00,Wunderground v.1.15,2013-02-12 12:18:00,
2013-02-12 07:24:00,35.0,29.8,30.19,North,8,1.0,3.0,81,0.00,,,0.00,Wunderground v.1.15,2013-02-12 12:24:00,
2013-02-12 07:30:00,35.1,29.9,30.19,North,8,1.0,1.0,81,0.00,,,0.00,Wunderground v.1.15,2013-02-12 12:30:00,
2013-02-12 07:36:00,35.1,29.6,30.18,ENE,58,0.0,3.0,80,0.00,,,0.00,Wunderground v.1.15,2013-02-12 12:36:00,
2013-02-12 07:42:00,35.1,29.9,30.18,ENE,69,1.0,3.0,81,0.00,,,0.00,Wunderground v.1.15,2013-02-12 12:42:00,
2013-02-12 07:48:00,35.4,29.8,30.18,NNE,31,1.0,3.0,80,0.00,,,0.00,Wunderground v.1.15,2013-02-12 12:48:00,
2013-02-12 07:54:00,36.1,30.5,30.19,NNE,31,1.0,3.0,80,0.00,,,0.00,Wunderground v.1.15,2013-02-12 12:54:00,
2013-02-12 08:00:00,36.3,30.7,30.20,North,359,0.0,3.0,80,0.00,,,0.00,Wunderground v.1.15,2013-02-12 13:00:00,
2013-02-12 08:06:00,36.5,31.8,30.20,NNW,347,0.0,3.0,83,0.00,,,0.00,Wunderground v.1.15,2013-02-12 13:06:00,
2013-02-12 08:12:00,36.4,31.4,30.20,NNW,347,0.0,3.0,82,0.00,,,0.00,Wunderground v.1.15,2013-02-12 13:12:00,
2013-02-12 08:18:00,36.1,31.7,30.21,North,354,0.0,3.0,84,0.00,,,0.00,Wunderground v.1.15,2013-02-12 13:18:00,
2013-02-12 08:24:00,36.5,32.1,30.21,SW,233,0.0,3.0,84,0.00,,,0.00,Wunderground v.1.15,2013-02-12 13:24:00,
2013-02-12 08:30:00,36.8,32.7,30.21,North,6,1.0,1.0,85,0.00,,,0.00,Wunderground v.1.15,2013-02-12 13:30:00,
2013-02-12 08:36:00,37.5,33.4,30.22,NNW,347,1.0,3.0,85,0.00,,,0.00,Wunderground v.1.15,2013-02-12 13:36:00,
2013-02-12 08:42:00,38.1,33.4,30.22,NNW,347,0.0,3.0,83,0.00,,,0.00,Wunderground v.1.15,2013-02-12 13:42:00,
2013-02-12 08:48:00,38.1,33.7,30.21,West,259,0.0,3.0,84,0.00,,,0.00,Wunderground v.1.15,2013-02-12 13:48:00,
2013-02-12 08:54:00,38.4,34.0,30.22,West,259,0.0,3.0,84,0.00,,,0.00,Wunderground v.1.15,2013-02-12 13:54:00,
2013-02-12 09:00:00,39.1,35.0,30.22,WSW,257,0.0,3.0,85,0.00,,,0.00,Wunderground v.1.15,2013-02-12 14:00:00,
2013-02-12 09:06:00,40.7,35.6,30.22,SE,141,0.0,3.0,82,0.00,,,0.00,Wunderground v.1.15,2013-02-12 14:06:00,
2013-02-12 09:12:00,40.4,35.6,30.21,SSW,195,1.0,3.0,83,0.00,,,0.00,Wunderground v.1.15,2013-02-12 14:12:00,
2013-02-12 09:18:00,40.4,35.9,30.21,SSW,197,1.0,3.0,84,0.00,,,0.00,Wunderground v.1.15,2013-02-12 14:18:00,
2013-02-12 09:24:00,40.5,36.0,30.20,SSW,198,0.0,3.0,84,0.00,,,0.00,Wunderground v.1.15,2013-02-12 14:24:00,
2013-02-12 09:30:00,40.6,36.1,30.19,SSW,207,0.0,3.0,84,0.00,,,0.00,Wunderground v.1.15,2013-02-12 14:30:00,
2013-02-12 09:36:00,40.4,35.9,30.19,SSW,194,2.0,3.0,84,0.00,,,0.00,Wunderground v.1.15,2013-02-12 14:36:00,
2013-02-12 09:42:00,40.4,35.3,30.20,South,190,1.0,3.0,82,0.00,,,0.00,Wunderground v.1.15,2013-02-12 14:42:00,
2013-02-12 09:48:00,41.3,35.9,30.19,SSE,158,0.0,3.0,81,0.00,,,0.00,Wunderground v.1.15,2013-02-12 14:48:00,
2013-02-12 09:54:00,42.0,35.6,30.17,SSW,212,0.0,3.0,78,0.00,,,0.00,Wunderground v.1.15,2013-02-12 14:54:00,
2013-02-12 10:00:00,42.5,34.5,30.18,SSW,211,0.0,3.0,73,0.00,,,0.00,Wunderground v.1.15,2013-02-12 15:00:00,
2013-02-12 10:06:00,43.7,34.6,30.19,South,187,0.0,3.0,70,0.00,,,0.00,Wunderground v.1.15,2013-02-12 15:06:00,
2013-02-12 10:12:00,45.0,35.1,30.19,SSE,156,0.0,3.0,68,0.00,,,0.00,Wunderground v.1.15,2013-02-12 15:12:00,
2013-02-12 10:18:00,45.3,33.0,30.18,South,177,0.0,3.0,62,0.00,,,0.00,Wunderground v.1.15,2013-02-12 15:18:00,
2013-02-12 10:24:00,45.5,31.6,30.18,SSW,195,1.0,3.0,58,0.00,,,0.00,Wunderground v.1.15,2013-02-12 15:24:00,
2013-02-12 10:30:00,46.1,33.4,30.18,South,184,1.0,3.0,61,0.00,,,0.00,Wunderground v.1.15,2013-02-12 15:30:00,
2013-02-12 10:36:00,46.4,33.3,30.17,SSW,212,1.0,3.0,60,0.00,,,0.00,Wunderground v.1.15,2013-02-12 15:36:00,
2013-02-12 10:42:00,46.2,31.8,30.17,SSW,208,3.0,4.0,57,0.00,,,0.00,Wunderground v.1.15,2013-02-12 15:42:00,
2013-02-12 10:48:00,45.9,33.2,30.16,SSW,207,4.0,4.0,61,0.00,,,0.00,Wunderground v.1.15,2013-02-12 15:48:00,
2013-02-12 10:54:00,45.6,33.7,30.17,SSW,198,3.0,4.0,63,0.00,,,0.00,Wunderground v.1.15,2013-02-12 15:54:00,
2013-02-12 11:00:00,45.7,30.9,30.16,South,188,4.0,4.0,56,0.00,,,0.00,Wunderground v.1.15,2013-02-12 16:00:00,
2013-02-12 11:06:00,45.8,30.5,30.15,South,184,4.0,6.0,55,0.00,,,0.00,Wunderground v.1.15,2013-02-12 16:06:00,
2013-02-12 11:12:00,45.9,30.2,30.14,SSW,194,4.0,4.0,54,0.00,,,0.00,Wunderground v.1.15,2013-02-12 16:12:00,
2013-02-12 11:18:00,46.0,29.8,30.12,South,190,5.0,6.0,53,0.00,,,0.00,Wunderground v.1.15,2013-02-12 16:18:00,
2013-02-12 11:24:00,45.9,28.8,30.11,SSW,200,6.0,7.0,51,0.00,,,0.00,Wunderground v.1.15,2013-02-12 16:24:00,
2013-02-12 11:30:00,46.4,27.8,30.11,SSE,167,7.0,7.0,48,0.00,,,0.00,Wunderground v.1.15,2013-02-12 16:30:00,
2013-02-12 11:38:00,46.8,27.6,30.11,SSE,167,6.0,9.0,47,0.00,,,0.00,Wunderground v.1.15,2013-02-12 16:38:00,
2013-02-12 11:44:00,47.2,28.0,30.11,SE,139,5.0,6.0,47,0.00,,,0.00,Wunderground v.1.15,2013-02-12 16:44:00,
2013-02-12 11:50:00,47.4,27.1,30.11,SSE,150,4.0,5.0,45,0.00,,,0.00,Wunderground v.1.15,2013-02-12 16:50:00,
2013-02-12 11:56:00,47.7,27.9,30.12,SSE,153,4.0,5.0,46,0.00,,,0.00,Wunderground v.1.15,2013-02-12 16:56:00,
2013-02-12 12:02:00,48.2,27.3,30.12,SSE,150,3.0,4.0,44,0.00,,,0.00,Wunderground v.1.15,2013-02-12 17:02:00,
2013-02-12 12:08:00,48.7,26.0,30.12,ESE,110,3.0,4.0,41,0.00,,,0.00,Wunderground v.1.15,2013-02-12 17:08:00,
2013-02-12 12:14:00,49.2,28.2,30.12,South,183,2.0,4.0,44,0.00,,,0.00,Wunderground v.1.15,2013-02-12 17:14:00,
2013-02-12 12:20:00,49.8,27.6,30.12,SW,218,2.0,4.0,42,0.00,,,0.00,Wunderground v.1.15,2013-02-12 17:20:00,
2013-02-12 12:26:00,50.1,27.9,30.11,SSE,156,1.0,4.0,42,0.00,,,0.00,Wunderground v.1.15,2013-02-12 17:26:00,
2013-02-12 12:32:00,50.5,27.7,30.12,South,190,2.0,4.0,41,0.00,,,0.00,Wunderground v.1.15,2013-02-12 17:32:00,
2013-02-12 12:38:00,49.9,25.9,30.12,SW,221,3.0,4.0,39,0.00,,,0.00,Wunderground v.1.15,2013-02-12 17:38:00,
2013-02-12 12:44:00,50.2,27.4,30.12,South,190,2.0,3.0,41,0.00,,,0.00,Wunderground v.1.15,2013-02-12 17:44:00,
2013-02-12 12:50:00,50.5,27.0,30.13,West,281,1.0,3.0,40,0.00,,,0.00,Wunderground v.1.15,2013-02-12 17:50:00,
2013-02-12 12:56:00,51.4,27.9,30.13,SSW,204,1.0,3.0,40,0.00,,,0.00,Wunderground v.1.15,2013-02-12 17:56:00,
2013-02-12 13:02:00,51.4,26.6,30.13,East,98,1.0,3.0,38,0.00,,,0.00,Wunderground v.1.15,2013-02-12 18:02:00,
2013-02-12 13:08:00,51.5,27.9,30.13,NE,38,1.0,3.0,40,0.00,,,0.00,Wunderground v.1.15,2013-02-12 18:08:00,
2013-02-12 13:14:00,51.6,27.4,30.11,SSE,167,1.0,3.0,39,0.00,,,0.00,Wunderground v.1.15,2013-02-12 18:14:00,
2013-02-12 13:20:00,51.6,26.8,30.11,SSW,193,2.0,2.0,38,0.00,,,0.00,Wunderground v.1.15,2013-02-12 18:20:00,
2013-02-12 13:26:00,51.7,26.9,30.11,SE,143,1.0,3.0,38,0.00,,,0.00,Wunderground v.1.15,2013-02-12 18:26:00,
2013-02-12 13:32:00,51.8,29.4,30.12,SW,215,0.0,3.0,42,0.00,,,0.00,Wunderground v.1.15,2013-02-12 18:32:00,
2013-02-12 13:38:00,51.8,28.8,30.11,SSE,155,1.0,4.0,41,0.00,,,0.00,Wunderground v.1.15,2013-02-12 18:38:00,
2013-02-12 13:44:00,51.4,27.9,30.10,SE,131,2.0,3.0,40,0.00,,,0.00,Wunderground v.1.15,2013-02-12 18:44:00,
2013-02-12 13:50:00,51.6,29.2,30.11,ESE,121,1.0,1.0,42,0.00,,,0.00,Wunderground v.1.15,2013-02-12 18:50:00,
2013-02-12 13:56:00,51.9,28.9,30.11,SSW,195,0.0,3.0,41,0.00,,,0.00,Wunderground v.1.15,2013-02-12 18:56:00,
2013-02-12 14:02:00,51.4,28.5,30.09,SSW,200,1.0,3.0,41,0.00,,,0.00,Wunderground v.1.15,2013-02-12 19:02:00,
2013-02-12 14:08:00,50.6,28.9,30.08,South,191,2.0,6.0,43,0.00,,,0.00,Wunderground v.1.15,2013-02-12 19:08:00,
2013-02-12 14:14:00,50.3,28.6,30.05,South,190,4.0,4.0,43,0.00,,,0.00,Wunderground v.1.15,2013-02-12 19:14:00,
2013-02-12 14:20:00,50.4,27.6,30.07,SSE,153,3.0,3.0,41,0.00,,,0.00,Wunderground v.1.15,2013-02-12 19:20:00,
2013-02-12 14:26:00,50.2,29.7,30.05,South,184,4.0,6.0,45,0.00,,,0.00,Wunderground v.1.15,2013-02-12 19:26:00,
2013-02-12 14:32:00,49.7,29.2,30.05,SSW,194,5.0,5.0,45,0.00,,,0.00,Wunderground v.1.15,2013-02-12 19:32:00,
2013-02-12 14:38:00,49.5,29.0,30.07,SSW,208,5.0,5.0,45,0.00,,,0.00,Wunderground v.1.15,2013-02-12 19:38:00,
2013-02-12 14:44:00,49.6,28.6,30.08,SW,236,4.0,5.0,44,0.00,,,0.00,Wunderground v.1.15,2013-02-12 19:44:00,
2013-02-12 14:50:00,49.7,28.6,30.09,SW,229,3.0,3.0,44,0.00,,,0.00,Wunderground v.1.15,2013-02-12 19:50:00,
2013-02-12 14:56:00,49.6,28.0,30.09,WSW,243,2.0,3.0,43,0.00,,,0.00,Wunderground v.1.15,2013-02-12 19:56:00,
2013-02-12 15:02:00,49.6,28.0,30.09,WSW,246,2.0,3.0,43,0.00,,,0.00,Wunderground v.1.15,2013-02-12 20:02:00,
2013-02-12 15:08:00,49.8,27.6,30.09,WSW,243,2.0,3.0,42,0.00,,,0.00,Wunderground v.1.15,2013-02-12 20:08:00,
2013-02-12 15:14:00,49.9,28.8,30.09,SW,225,2.0,3.0,44,0.00,,,0.00,Wunderground v.1.15,2013-02-12 20:14:00,
2013-02-12 15:20:00,49.7,28.1,30.08,SW,217,1.0,3.0,43,0.00,,,0.00,Wunderground v.1.15,2013-02-12 20:20:00,
2013-02-12 15:26:00,49.6,29.1,30.08,SSW,197,1.0,3.0,45,0.00,,,0.00,Wunderground v.1.15,2013-02-12 20:26:00,
2013-02-12 15:32:00,49.6,28.6,30.08,SSW,196,1.0,3.0,44,0.00,,,0.00,Wunderground v.1.15,2013-02-12 20:32:00,
2013-02-12 15:38:00,49.7,28.6,30.08,SSW,197,0.0,3.0,44,0.00,,,0.00,Wunderground v.1.15,2013-02-12 20:38:00,
2013-02-12 15:44:00,49.6,28.6,30.07,SSW,198,0.0,3.0,44,0.00,,,0.00,Wunderground v.1.15,2013-02-12 20:44:00,
2013-02-12 15:50:00,49.6,28.6,30.06,SSW,198,0.0,3.0,44,0.00,,,0.00,Wunderground v.1.15,2013-02-12 20:50:00,
2013-02-12 15:56:00,49.6,28.0,30.06,SSW,198,0.0,3.0,43,0.00,,,0.00,Wunderground v.1.15,2013-02-12 20:56:00,
2013-02-12 16:02:00,49.5,29.0,30.05,South,187,1.0,3.0,45,0.00,,,0.00,Wunderground v.1.15,2013-02-12 21:02:00,
2013-02-12 16:08:00,49.7,29.2,30.06,SE,143,1.0,3.0,45,0.00,,,0.00,Wunderground v.1.15,2013-02-12 21:08:00,
2013-02-12 16:14:00,49.8,28.2,30.06,SSE,150,1.0,3.0,43,0.00,,,0.00,Wunderground v.1.15,2013-02-12 21:14:00,
2013-02-12 16:20:00,50.0,28.9,30.06,SSE,150,0.0,3.0,44,0.00,,,0.00,Wunderground v.1.15,2013-02-12 21:20:00,
2013-02-12 16:26:00,49.8,31.9,30.05,WSW,243,0.0,3.0,50,0.00,,,0.00,Wunderground v.1.15,2013-02-12 21:26:00,
2013-02-12 16:32:00,49.6,28.6,30.05,WSW,243,0.0,3.0,44,0.00,,,0.00,Wunderground v.1.15,2013-02-12 21:32:00,
2013-02-12 16:38:00,49.6,28.0,30.06,WSW,243,0.0,3.0,43,0.00,,,0.00,Wunderground v.1.15,2013-02-12 21:38:00,
2013-02-12 16:44:00,49.5,27.9,30.05,WSW,243,0.0,3.0,43,0.00,,,0.00,Wunderground v.1.15,2013-02-12 21:44:00,
2013-02-12 16:50:00,49.5,31.6,30.05,WSW,243,0.0,3.0,50,0.00,,,0.00,Wunderground v.1.15,2013-02-12 21:50:00,
2013-02-12 16:56:00,49.3,28.3,30.04,WSW,243,0.0,3.0,44,0.00,,,0.00,Wunderground v.1.15,2013-02-12 21:56:00,
2013-02-12 17:02:00,49.3,30.9,30.03,WSW,243,0.0,3.0,49,0.00,,,0.00,Wunderground v.1.15,2013-02-12 22:02:00,
2013-02-12 17:08:00,49.2,31.8,30.04,WSW,243,0.0,3.0,51,0.00,,,0.00,Wunderground v.1.15,2013-02-12 22:08:00,
2013-02-12 17:14:00,49.1,31.2,30.02,SSE,162,0.0,3.0,50,0.00,,,0.00,Wunderground v.1.15,2013-02-12 22:14:00,
2013-02-12 17:20:00,49.0,33.1,30.03,ENE,68,0.0,3.0,54,0.00,,,0.00,Wunderground v.1.15,2013-02-12 22:20:00,
2013-02-12 17:26:00,48.9,33.0,30.03,East,82,0.0,3.0,54,0.00,,,0.00,Wunderground v.1.15,2013-02-12 22:26:00,
2013-02-12 17:32:00,48.8,31.5,30.03,ESE,122,1.0,3.0,51,0.00,,,0.00,Wunderground v.1.15,2013-02-12 22:32:00,
2013-02-12 17:38:00,48.9,30.6,30.02,SE,145,2.0,3.0,49,0.00,,,0.00,Wunderground v.1.15,2013-02-12 22:38:00,
2013-02-12 17:44:00,48.9,31.5,30.01,SE,146,1.0,3.0,51,0.00,,,0.00,Wunderground v.1.15,2013-02-12 22:44:00,
2013-02-12 17:50:00,48.7,30.9,30.00,SSE,150,2.0,3.0,50,0.00,,,0.00,Wunderground v.1.15,2013-02-12 22:50:00,
2013-02-12 17:56:00,48.7,30.9,30.00,South,170,1.0,3.0,50,0.00,,,0.00,Wunderground v.1.15,2013-02-12 22:56:00,
2013-02-12 18:02:00,48.5,34.8,30.00,South,170,0.0,3.0,59,0.00,,,0.00,Wunderground v.1.15,2013-02-12 23:02:00,
2013-02-12 18:08:00,48.0,33.9,29.99,SSE,153,0.0,3.0,58,0.00,,,0.00,Wunderground v.1.15,2013-02-12 23:08:00,
2013-02-12 18:14:00,47.6,32.7,29.99,SE,128,0.0,3.0,56,0.00,,,0.00,Wunderground v.1.15,2013-02-12 23:14:00,
2013-02-12 18:20:00,47.7,30.9,29.98,SE,134,2.0,3.0,52,0.00,,,0.00,Wunderground v.1.15,2013-02-12 23:20:00,
2013-02-12 18:26:00,47.8,31.5,29.98,ESE,122,3.0,3.0,53,0.00,,,0.00,Wunderground v.1.15,2013-02-12 23:26:00,
2013-02-12 18:32:00,47.7,31.4,29.98,SE,146,3.0,3.0,53,0.00,,,0.00,Wunderground v.1.15,2013-02-12 23:32:00,
2013-02-12 18:38:00,47.7,30.9,29.97,SSE,148,2.0,3.0,52,0.00,,,0.00,Wunderground v.1.15,2013-02-12 23:38:00,
2013-02-12 18:44:00,47.8,31.0,29.98,SSE,150,1.0,3.0,52,0.00,,,0.00,Wunderground v.1.15,2013-02-12 23:44:00,
2013-02-12 18:50:00,47.8,30.5,29.99,SSE,150,0.0,3.0,51,0.00,,,0.00,Wunderground v.1.15,2013-02-12 23:50:00,
2013-02-12 18:56:00,47.7,32.3,29.99,SE,141,0.0,3.0,55,0.00,,,0.00,Wunderground v.1.15,2013-02-12 23:56:00,
2013-02-12 19:02:00,47.4,31.6,30.00,SE,141,0.0,3.0,54,0.00,,,0.00,Wunderground v.1.15,2013-02-13 00:02:00,
2013-02-12 19:08:00,47.3,31.0,30.00,SE,141,0.0,3.0,53,0.00,,,0.00,Wunderground v.1.15,2013-02-13 00:08:00,
2013-02-12 19:14:00,47.3,30.5,30.01,SE,141,0.0,3.0,52,0.00,,,0.00,Wunderground v.1.15,2013-02-13 00:14:00,
2013-02-12 19:20:00,47.4,31.1,30.02,North,358,0.0,3.0,53,0.00,,,0.00,Wunderground v.1.15,2013-02-13 00:20:00,
2013-02-12 19:26:00,47.2,31.4,30.02,North,355,1.0,3.0,54,0.00,,,0.00,Wunderground v.1.15,2013-02-13 00:26:00,
2013-02-12 19:32:00,47.1,31.3,30.02,NW,317,2.0,3.0,54,0.00,,,0.00,Wunderground v.1.15,2013-02-13 00:32:00,
2013-02-12 19:38:00,46.6,33.4,30.01,NE,37,1.0,4.0,60,0.00,,,0.00,Wunderground v.1.15,2013-02-13 00:38:00,
2013-02-12 19:44:00,46.4,31.5,30.03,NNE,29,3.0,5.0,56,0.00,,,0.00,Wunderground v.1.15,2013-02-13 00:44:00,
2013-02-12 19:50:00,46.8,31.0,30.02,NW,314,2.0,2.0,54,0.00,,,0.00,Wunderground v.1.15,2013-02-13 00:50:00,
2013-02-12 19:56:00,46.4,31.5,30.02,NNE,21,1.0,3.0,56,0.00,,,0.00,Wunderground v.1.15,2013-02-13 00:56:00,
2013-02-12 20:02:00,46.6,34.3,30.01,SSE,151,2.0,3.0,62,0.00,,,0.00,Wunderground v.1.15,2013-02-13 01:02:00,
2013-02-12 20:08:00,46.0,32.5,30.02,NNE,13,1.0,3.0,59,0.00,,,0.00,Wunderground v.1.15,2013-02-13 01:08:00,
2013-02-12 20:14:00,45.8,32.7,30.01,NNE,25,0.0,3.0,60,0.00,,,0.00,Wunderground v.1.15,2013-02-13 01:14:00,
2013-02-12 20:20:00,45.7,32.6,30.00,ESE,102,0.0,3.0,60,0.00,,,0.00,Wunderground v.1.15,2013-02-13 01:20:00,
2013-02-12 20:26:00,45.7,33.4,30.00,NE,36,0.0,3.0,62,0.00,,,0.00,Wunderground v.1.15,2013-02-13 01:26:00,
2013-02-12 20:32:00,45.6,33.3,30.00,NNE,16,1.0,3.0,62,0.00,,,0.00,Wunderground v.1.15,2013-02-13 01:32:00,
2013-02-12 20:38:00,46.0,32.5,30.00,NW,304,2.0,4.0,59,0.00,,,0.00,Wunderground v.1.15,2013-02-13 01:38:00,
2013-02-12 20:44:00,46.0,33.7,29.99,SW,231,2.0,3.0,62,0.00,,,0.00,Wunderground v.1.15,2013-02-13 01:44:00,
2013-02-12 20:50:00,46.0,38.2,29.98,WSW,253,3.0,3.0,74,0.00,,,0.00,Wunderground v.1.15,2013-02-13 01:50:00,
2013-02-12 21:04:00,45.9,35.2,29.99,NW,309,3.0,4.0,66,0.00,,,0.00,Wunderground v.1.15,2013-02-13 02:04:00,
2013-02-12 21:10:00,46.1,35.7,29.98,West,274,4.0,4.0,67,0.00,,,0.00,Wunderground v.1.15,2013-02-13 02:10:00,
2013-02-12 21:16:00,46.3,33.6,29.98,WNW,283,4.0,5.0,61,0.00,,,0.00,Wunderground v.1.15,2013-02-13 02:16:00,
2013-02-12 21:22:00,46.6,35.1,29.98,NNW,335,4.0,4.0,64,0.00,,,0.00,Wunderground v.1.15,2013-02-13 02:22:00,
2013-02-12 21:28:00,46.6,34.3,29.97,NW,315,4.0,6.0,62,0.00,,,0.00,Wunderground v.1.15,2013-02-13 02:28:00,
2013-02-12 21:34:00,46.8,33.6,29.96,SW,214,5.0,7.0,60,0.00,,,0.00,Wunderground v.1.15,2013-02-13 02:34:00,
2013-02-12 21:40:00,46.7,34.0,29.98,SW,221,4.0,4.0,61,0.00,,,0.00,Wunderground v.1.15,2013-02-13 02:40:00,
2013-02-12 21:46:00,46.4,34.9,29.98,WNW,288,3.0,7.0,64,0.00,,,0.00,Wunderground v.1.15,2013-02-13 02:46:00,
2013-02-12 21:52:00,46.1,35.0,29.98,West,269,5.0,5.0,65,0.00,,,0.00,Wunderground v.1.15,2013-02-13 02:52:00,
2013-02-12 21:58:00,45.9,35.2,29.98,NW,314,4.0,5.0,66,0.00,,,0.00,Wunderground v.1.15,2013-02-13 02:58:00,
2013-02-12 22:04:00,45.6,35.3,29.97,SW,217,2.0,4.0,67,0.00,,,0.00,Wunderground v.1.15,2013-02-13 03:04:00,
2013-02-12 22:10:00,45.5,35.5,29.97,ESE,110,0.0,3.0,68,0.00,,,0.00,Wunderground v.1.15,2013-02-13 03:10:00,
2013-02-12 22:16:00,45.3,35.7,29.96,SW,221,0.0,3.0,69,0.00,,,0.00,Wunderground v.1.15,2013-02-13 03:16:00,
2013-02-12 22:22:00,45.3,36.1,29.95,SSW,200,1.0,3.0,70,0.00,,,0.00,Wunderground v.1.15,2013-02-13 03:22:00,
2013-02-12 22:28:00,45.3,36.8,29.95,SE,138,1.0,3.0,72,0.00,,,0.00,Wunderground v.1.15,2013-02-13 03:28:00,
2013-02-12 22:34:00,45.2,36.7,29.95,SE,131,2.0,3.0,72,0.00,,,0.00,Wunderground v.1.15,2013-02-13 03:34:00,
2013-02-12 22:40:00,45.1,36.6,29.94,SE,124,2.0,3.0,72,0.00,,,0.00,Wunderground v.1.15,2013-02-13 03:40:00,
2013-02-12 22:46:00,45.2,36.4,29.93,SSE,147,3.0,5.0,71,0.00,,,0.00,Wunderground v.1.15,2013-02-13 03:46:00,
2013-02-12 22:52:00,45.3,36.4,29.93,SE,130,4.0,5.0,71,0.00,,,0.00,Wunderground v.1.15,2013-02-13 03:52:00,
2013-02-12 22:58:00,45.4,36.9,29.93,SE,133,4.0,5.0,72,0.00,,,0.00,Wunderground v.1.15,2013-02-13 03:58:00,
2013-02-12 23:04:00,45.5,36.3,29.93,SSE,160,3.0,3.0,70,0.00,,,0.00,Wunderground v.1.15,2013-02-13 04:04:00,
2013-02-12 23:10:00,45.6,36.4,29.93,ESE,121,2.0,3.0,70,0.00,,,0.00,Wunderground v.1.15,2013-02-13 04:10:00,
2013-02-12 23:16:00,45.5,36.3,29.93,SE,143,2.0,3.0,70,0.00,,,0.00,Wunderground v.1.15,2013-02-13 04:16:00,
2013-02-12 23:22:00,45.5,36.6,29.93,SE,141,3.0,3.0,71,0.00,,,0.00,Wunderground v.1.15,2013-02-13 04:22:00,
2013-02-12 23:28:00,45.5,36.3,29.93,SSE,149,3.0,5.0,70,0.00,,,0.00,Wunderground v.1.15,2013-02-13 04:28:00,
2013-02-12 23:34:00,45.6,35.6,29.92,SSE,165,3.0,3.0,68,0.00,,,0.00,Wunderground v.1.15,2013-02-13 04:34:00,
2013-02-12 23:40:00,45.6,36.4,29.92,SSE,158,2.0,4.0,70,0.00,,,0.00,Wunderground v.1.15,2013-02-13 04:40:00,
2013-02-12 23:46:00,45.8,35.8,29.91,SSE,159,2.0,4.0,68,0.00,,,0.00,Wunderground v.1.15,2013-02-13 04:46:00,
2013-02-12 23:52:00,45.9,35.6,29.91,SSE,163,3.0,3.0,67,0.00,,,0.00,Wunderground v.1.15,2013-02-13 04:52:00,
2013-02-12 23:58:00,45.9,35.6,29.91,South,181,3.0,4.0,67,0.00,,,0.00,Wunderground v.1.15,2013-02-13 04:58:00,